Terminal Aerodrome Forecast
Issued by NWS Wakefield, VA

Home | Current Version | Previous Version | Text Only | Print | Product List | Glossary On
Versions: 1 2 3 4 5 6 7 8 9 10 11 12 13 14 15 16 17 18 19
000
FTUS41 KAKQ 051744
TAFORF
TAF
KORF 051744Z 0518/0618 06007KT P6SM VCSH BKN120
      TEMPO 0518/0520 18020KT 3SM -TSRA BKN040CB
     FM060000 14005KT 6SM -SHRA BR OVC050
     FM060900 20005KT P6SM BKN100
     FM061200 20007KT P6SM SCT060=

USA.gov is the U.S. government's official web portal to all federal, state and local government web resources and services.